createdAt,value
2024-03-07T00:01:32.910Z,37.90
2024-03-07T00:04:00.350Z,36.27
2024-03-07T00:06:28.798Z,37.53
2024-03-07T00:08:56.342Z,34.33
2024-03-07T00:11:23.836Z,33.37
2024-03-07T00:13:51.346Z,32.80
2024-03-07T00:16:18.801Z,34.83
2024-03-07T00:18:46.773Z,35.00
2024-03-07T00:21:14.233Z,34.10
2024-03-07T00:23:41.733Z,35.97
2024-03-07T00:26:09.237Z,38.37
2024-03-07T00:28:38.312Z,35.50
2024-03-07T00:31:07.364Z,38.70
2024-03-07T00:33:51.186Z,37.40
2024-03-07T00:36:04.333Z,34.60
2024-03-07T00:38:31.785Z,36.67
2024-03-07T00:41:00.278Z,34.20
2024-03-07T00:43:27.997Z,34.73
2024-03-07T00:45:55.541Z,34.47
2024-03-07T00:48:24.669Z,35.00
2024-03-07T00:50:52.585Z,37.90
2024-03-07T00:53:20.065Z,36.73
2024-03-07T00:55:48.085Z,37.53
2024-03-07T00:58:15.813Z,33.60
2024-03-07T01:00:44.170Z,36.97
2024-03-07T01:03:12.199Z,37.50
2024-03-07T01:05:40.078Z,37.20
2024-03-07T01:08:10.579Z,33.40
2024-03-07T01:10:38.563Z,36.00
2024-03-07T01:13:07.620Z,35.43
2024-03-07T01:15:35.648Z,37.40
2024-03-07T01:18:03.482Z,40.57
2024-03-07T01:20:30.943Z,41.67
2024-03-07T01:22:58.400Z,39.60
2024-03-07T01:25:25.914Z,41.43
2024-03-07T01:27:53.373Z,39.10
2024-03-07T01:30:22.545Z,39.20
2024-03-07T01:32:50.022Z,39.80
2024-03-07T01:35:17.637Z,37.10
2024-03-07T01:37:45.084Z,37.93
2024-03-07T01:40:12.807Z,36.33
2024-03-07T01:42:40.241Z,38.93
2024-03-07T01:45:09.592Z,37.80
2024-03-07T01:47:40.124Z,42.07
2024-03-07T01:50:08.225Z,37.37
2024-03-07T01:52:35.675Z,38.90
2024-03-07T01:55:03.929Z,38.00
2024-03-07T01:57:31.459Z,38.03
2024-03-07T01:59:58.993Z,42.30
2024-03-07T02:02:26.400Z,36.13
2024-03-07T02:04:53.839Z,37.50
2024-03-07T02:07:21.295Z,38.67
2024-03-07T02:09:48.733Z,39.37
2024-03-07T02:12:16.415Z,41.47
2024-03-07T02:14:43.994Z,42.97
2024-03-07T02:17:11.423Z,41.67
2024-03-07T02:19:38.901Z,38.57
2024-03-07T02:22:06.374Z,39.13
2024-03-07T02:24:33.794Z,38.00
2024-03-07T02:27:01.333Z,41.03
2024-03-07T02:29:28.850Z,43.63
2024-03-07T02:31:56.564Z,42.67
2024-03-07T02:34:24.090Z,44.33
2024-03-07T02:36:52.369Z,43.77
2024-03-07T02:39:21.876Z,41.50
2024-03-07T02:41:49.508Z,41.53
2024-03-07T02:44:16.955Z,41.70
2024-03-07T02:46:44.577Z,42.93
2024-03-07T02:49:12.033Z,42.67
2024-03-07T02:51:39.513Z,45.00
2024-03-07T02:54:06.966Z,43.57
2024-03-07T02:56:34.509Z,39.90
2024-03-07T02:59:04.807Z,43.10
2024-03-07T03:01:31.508Z,40.53
2024-03-07T03:03:58.924Z,42.77
2024-03-07T03:06:26.438Z,42.30
2024-03-07T03:08:55.156Z,44.07
2024-03-07T03:11:22.637Z,41.07
2024-03-07T03:13:50.196Z,41.17
2024-03-07T03:16:19.220Z,42.53
2024-03-07T03:18:46.692Z,44.27
2024-03-07T03:21:14.138Z,42.83
2024-03-07T03:23:41.721Z,40.27
2024-03-07T03:26:09.224Z,38.30
2024-03-07T03:28:36.673Z,41.37
2024-03-07T03:31:05.273Z,39.10
2024-03-07T03:33:33.226Z,40.90
2024-03-07T03:36:00.695Z,40.87
2024-03-07T03:38:28.131Z,38.50
2024-03-07T03:40:56.964Z,42.87
2024-03-07T03:43:24.883Z,40.70
2024-03-07T03:45:52.591Z,44.60
2024-03-07T03:48:20.086Z,42.60
2024-03-07T03:50:47.878Z,39.97
2024-03-07T03:53:15.478Z,41.10
2024-03-07T03:55:42.923Z,42.77
2024-03-07T03:58:11.462Z,40.00
2024-03-07T04:00:40.333Z,38.90
2024-03-07T04:03:07.813Z,39.43
2024-03-07T04:05:35.324Z,46.57
2024-03-07T04:08:02.955Z,40.77
2024-03-07T04:10:30.389Z,39.73
2024-03-07T04:12:58.318Z,36.93
2024-03-07T04:15:27.613Z,40.97
2024-03-07T04:17:55.212Z,40.47
2024-03-07T04:20:23.395Z,39.67
2024-03-07T04:22:51.708Z,40.93
2024-03-07T04:25:19.410Z,38.33
2024-03-07T04:27:47.087Z,38.47
2024-03-07T04:30:16.483Z,37.30
2024-03-07T04:32:44.088Z,36.10
2024-03-07T04:35:17.010Z,39.17
2024-03-07T04:37:43.626Z,37.73
2024-03-07T04:40:17.973Z,38.93
2024-03-07T04:42:46.816Z,35.40
2024-03-07T04:45:14.702Z,36.60
2024-03-07T04:47:49.516Z,34.70
2024-03-07T04:50:20.913Z,36.73
2024-03-07T04:52:49.743Z,36.40
2024-03-07T04:55:18.159Z,36.20
2024-03-07T04:57:46.285Z,36.20
2024-03-07T05:00:18.062Z,37.67
2024-03-07T05:02:46.533Z,38.90
2024-03-07T05:05:14.382Z,37.50
2024-03-07T05:07:44.468Z,37.43
2024-03-07T05:10:11.892Z,36.53
2024-03-07T05:12:39.599Z,34.70
2024-03-07T05:15:07.596Z,34.87
2024-03-07T05:17:36.241Z,34.47
2024-03-07T05:20:04.824Z,35.30
2024-03-07T05:22:32.400Z,37.20
2024-03-07T05:25:00.411Z,38.07
2024-03-07T05:27:28.932Z,36.03
2024-03-07T05:29:57.192Z,34.87
2024-03-07T05:32:28.902Z,35.77
2024-03-07T05:34:56.571Z,35.43
2024-03-07T05:37:25.884Z,34.80
2024-03-07T05:39:53.624Z,34.37
2024-03-07T05:42:21.387Z,35.37
2024-03-07T05:44:49.107Z,34.57
2024-03-07T05:47:17.131Z,32.43
2024-03-07T05:49:45.125Z,34.80
2024-03-07T05:52:12.617Z,33.83
2024-03-07T05:54:40.037Z,34.70
2024-03-07T05:57:08.342Z,34.20
2024-03-07T05:59:35.839Z,32.20
2024-03-07T06:02:04.067Z,36.00
2024-03-07T06:04:33.083Z,33.40
2024-03-07T06:07:00.810Z,32.13
2024-03-07T06:09:28.276Z,33.80
2024-03-07T06:11:55.798Z,37.27
2024-03-07T06:14:24.921Z,34.20
2024-03-07T06:16:53.240Z,36.63
2024-03-07T06:19:20.773Z,35.90
2024-03-07T06:21:49.076Z,32.00
2024-03-07T06:24:18.210Z,34.33
2024-03-07T06:26:47.796Z,33.50
2024-03-07T06:29:17.993Z,32.47
2024-03-07T06:31:48.828Z,36.50
2024-03-07T06:34:16.516Z,37.17
2024-03-07T06:36:43.968Z,35.77
2024-03-07T06:39:12.021Z,37.43
2024-03-07T06:41:40.338Z,33.27
2024-03-07T06:44:08.737Z,32.70
2024-03-07T06:46:36.437Z,31.10
2024-03-07T06:49:05.678Z,32.53
2024-03-07T06:51:34.074Z,30.90
2024-03-07T06:54:01.815Z,31.87
2024-03-07T06:56:29.399Z,34.17
2024-03-07T06:58:56.992Z,34.00
2024-03-07T07:01:24.977Z,32.40
2024-03-07T07:03:52.656Z,33.03
2024-03-07T07:06:20.767Z,32.53
2024-03-07T07:08:48.227Z,32.20
2024-03-07T07:11:16.348Z,32.20
2024-03-07T07:13:43.802Z,31.47
2024-03-07T07:16:11.596Z,32.87
2024-03-07T07:18:39.292Z,34.30
2024-03-07T07:21:08.403Z,35.03
2024-03-07T07:23:35.809Z,32.83
2024-03-07T07:26:03.342Z,33.43
2024-03-07T07:28:31.557Z,36.33
2024-03-07T07:30:59.002Z,34.70
2024-03-07T07:33:26.514Z,35.80
2024-03-07T07:35:54.115Z,36.07
2024-03-07T07:38:21.602Z,34.33
2024-03-07T07:40:50.562Z,33.77
2024-03-07T07:43:26.350Z,32.67
2024-03-07T07:45:49.307Z,35.10
2024-03-07T07:48:17.697Z,33.90
2024-03-07T07:50:45.184Z,33.00
2024-03-07T07:53:13.031Z,31.27
2024-03-07T07:55:41.210Z,30.33
2024-03-07T07:58:08.696Z,29.00
2024-03-07T08:00:37.572Z,29.30
2024-03-07T08:03:08.293Z,29.00
2024-03-07T08:05:36.987Z,28.17
2024-03-07T08:08:06.965Z,25.07
2024-03-07T08:10:35.425Z,22.73
2024-03-07T08:13:04.199Z,26.40
2024-03-07T08:15:32.536Z,26.17
2024-03-07T08:18:00.764Z,26.07
2024-03-07T08:20:28.907Z,24.97
2024-03-07T08:22:57.314Z,22.47
2024-03-07T08:25:26.079Z,22.53
2024-03-07T08:27:54.773Z,22.20
2024-03-07T08:30:22.338Z,20.87
2024-03-07T08:32:57.458Z,21.63
2024-03-07T08:35:25.239Z,24.63
2024-03-07T08:37:59.652Z,22.10
2024-03-07T08:40:29.987Z,22.23
2024-03-07T08:42:58.315Z,23.60
2024-03-07T08:45:30.179Z,23.20
2024-03-07T08:47:59.841Z,23.17
2024-03-07T08:50:28.806Z,21.00
2024-03-07T08:52:56.880Z,22.70
2024-03-07T08:55:25.919Z,21.50
2024-03-07T08:57:53.559Z,21.73
2024-03-07T09:00:26.987Z,22.60
2024-03-07T09:02:56.516Z,22.80
2024-03-07T09:05:25.020Z,23.43
2024-03-07T09:07:53.700Z,20.77
2024-03-07T09:10:21.691Z,21.37
2024-03-07T09:12:50.725Z,20.53
2024-03-07T09:15:18.653Z,19.50
2024-03-07T09:17:48.198Z,20.27
2024-03-07T09:20:16.155Z,19.80
2024-03-07T09:22:48.268Z,19.80
2024-03-07T09:25:17.449Z,20.53
2024-03-07T09:27:44.877Z,20.40
2024-03-07T09:30:16.768Z,20.77
2024-03-07T09:32:44.772Z,20.20
2024-03-07T09:35:16.038Z,19.87
2024-03-07T09:37:44.493Z,19.43
2024-03-07T09:40:13.532Z,20.53
2024-03-07T09:42:46.474Z,21.67
2024-03-07T09:45:18.144Z,21.30
2024-03-07T09:47:48.105Z,18.80
2024-03-07T09:50:18.757Z,21.00
2024-03-07T09:52:47.598Z,18.53
2024-03-07T09:55:15.170Z,18.60
2024-03-07T09:57:43.630Z,21.43
2024-03-07T10:00:13.891Z,20.67
2024-03-07T10:02:43.621Z,21.10
2024-03-07T10:05:15.192Z,19.43
2024-03-07T10:07:41.120Z,19.80
2024-03-07T10:10:10.370Z,20.40
2024-03-07T10:12:39.073Z,20.60
2024-03-07T10:15:06.889Z,20.00
2024-03-07T10:17:34.501Z,20.87
2024-03-07T10:20:02.180Z,19.20
2024-03-07T10:22:29.920Z,20.00
2024-03-07T10:24:59.544Z,18.53
2024-03-07T10:27:29.123Z,18.90
2024-03-07T10:29:56.934Z,18.83
2024-03-07T10:32:25.503Z,19.43
2024-03-07T10:34:54.558Z,19.97
2024-03-07T10:37:22.268Z,19.00
2024-03-07T10:39:51.727Z,19.20
2024-03-07T10:42:20.224Z,20.77
2024-03-07T10:44:48.822Z,18.80
2024-03-07T10:47:22.554Z,19.30
2024-03-07T10:50:09.689Z,20.77
2024-03-07T10:52:40.043Z,19.00
2024-03-07T10:55:13.828Z,19.10
2024-03-07T10:57:46.001Z,18.20
2024-03-07T11:00:27.096Z,20.07
2024-03-07T11:02:57.312Z,19.13
2024-03-07T11:05:30.123Z,19.27
2024-03-07T11:07:59.430Z,17.83
2024-03-07T11:10:26.994Z,18.93
2024-03-07T11:12:55.018Z,18.33
2024-03-07T11:15:23.006Z,18.90
2024-03-07T11:17:50.932Z,21.30
2024-03-07T11:20:22.534Z,18.23
2024-03-07T11:22:50.492Z,21.07
2024-03-07T11:25:22.310Z,19.70
2024-03-07T11:27:54.850Z,17.80
2024-03-07T11:30:23.185Z,17.60
2024-03-07T11:32:53.069Z,16.63
2024-03-07T11:35:22.897Z,14.50
2024-03-07T11:37:50.949Z,15.70
2024-03-07T11:40:22.729Z,14.30
2024-03-07T11:42:50.589Z,14.53
2024-03-07T11:45:30.572Z,13.93
2024-03-07T11:48:02.189Z,13.00
2024-03-07T11:50:30.134Z,13.80
2024-03-07T11:52:57.879Z,14.60
2024-03-07T11:55:25.592Z,13.77
2024-03-07T11:57:53.795Z,13.40
2024-03-07T12:00:23.773Z,13.83
2024-03-07T12:02:51.338Z,12.97
2024-03-07T12:05:20.617Z,13.37
2024-03-07T12:07:49.678Z,12.80
2024-03-07T12:10:17.206Z,13.07
2024-03-07T12:12:44.836Z,12.70
2024-03-07T12:15:21.873Z,12.60
2024-03-07T12:17:50.626Z,13.03
2024-03-07T12:20:20.375Z,12.87
2024-03-07T12:22:49.317Z,13.63
2024-03-07T12:25:18.343Z,11.80
2024-03-07T12:27:45.850Z,12.50
2024-03-07T12:30:20.601Z,13.90
2024-03-07T12:32:51.430Z,12.60
2024-03-07T12:35:20.791Z,12.90
2024-03-07T12:37:49.481Z,12.63
2024-03-07T12:40:18.570Z,13.30
2024-03-07T12:42:47.893Z,13.07
2024-03-07T12:45:18.677Z,13.80
2024-03-07T12:47:48.263Z,14.53
2024-03-07T12:50:16.150Z,13.80
2024-03-07T12:52:46.654Z,12.93
2024-03-07T12:55:14.065Z,14.53
2024-03-07T12:57:41.809Z,13.20
2024-03-07T13:00:11.207Z,13.10
2024-03-07T13:02:38.646Z,13.57
2024-03-07T13:05:06.348Z,11.43
2024-03-07T13:07:33.896Z,11.60
2024-03-07T13:10:01.346Z,13.20
2024-03-07T13:12:30.522Z,12.73
2024-03-07T13:14:59.592Z,13.03
2024-03-07T13:17:27.048Z,12.23
2024-03-07T13:19:56.112Z,13.10
2024-03-07T13:22:25.355Z,11.80
2024-03-07T13:24:52.792Z,12.00
2024-03-07T13:27:23.972Z,12.77
2024-03-07T13:29:52.423Z,12.40
2024-03-07T13:32:19.865Z,12.10
2024-03-07T13:34:47.293Z,11.90
2024-03-07T13:37:16.597Z,12.63
2024-03-07T13:39:44.506Z,13.33
2024-03-07T13:42:12.241Z,13.83
2024-03-07T13:44:40.068Z,12.83
2024-03-07T13:47:08.107Z,13.73
2024-03-07T13:49:37.169Z,13.63
2024-03-07T13:52:06.383Z,12.93
2024-03-07T13:54:35.279Z,12.97
2024-03-07T13:57:06.504Z,13.80
2024-03-07T13:59:35.577Z,13.00
2024-03-07T14:02:23.602Z,13.23
2024-03-07T14:05:00.728Z,12.37
2024-03-07T14:07:38.767Z,12.47
2024-03-07T14:10:22.929Z,11.53
2024-03-07T14:13:07.294Z,11.47
2024-03-07T14:15:52.535Z,10.73
2024-03-07T14:18:27.476Z,11.03
2024-03-07T14:20:57.571Z,10.93
2024-03-07T14:23:45.829Z,11.17
2024-03-07T14:26:31.392Z,11.47
2024-03-07T14:29:06.871Z,12.00
2024-03-07T14:31:34.317Z,11.33
2024-03-07T14:34:04.960Z,11.77
2024-03-07T14:36:51.733Z,12.17
2024-03-07T14:39:26.754Z,12.40
2024-03-07T14:41:55.723Z,11.40
2024-03-07T14:44:32.936Z,11.73
2024-03-07T14:47:01.947Z,12.57
2024-03-07T14:49:29.732Z,14.77
2024-03-07T14:52:01.140Z,15.00
2024-03-07T14:54:29.486Z,15.97
2024-03-07T14:57:05.741Z,14.73
2024-03-07T14:59:33.580Z,14.50
2024-03-07T15:02:03.146Z,13.20
2024-03-07T15:04:34.165Z,12.57
2024-03-07T15:07:03.261Z,13.10
2024-03-07T15:09:34.337Z,13.40
2024-03-07T15:12:02.172Z,12.27
2024-03-07T15:14:38.313Z,13.00
2024-03-07T15:17:03.829Z,13.00
2024-03-07T15:19:31.715Z,13.13
2024-03-07T15:21:59.128Z,12.60
2024-03-07T15:24:26.864Z,13.13
2024-03-07T15:26:54.347Z,12.07
2024-03-07T15:29:23.510Z,14.20
2024-03-07T15:31:51.044Z,12.73
2024-03-07T15:34:18.493Z,12.27
2024-03-07T15:36:47.661Z,11.87
2024-03-07T15:39:21.540Z,13.67
2024-03-07T15:41:50.174Z,11.60
2024-03-07T15:44:17.678Z,11.97
2024-03-07T15:46:45.831Z,11.17
2024-03-07T15:49:14.013Z,10.97
2024-03-07T15:51:43.077Z,11.83
2024-03-07T15:54:12.144Z,11.53
2024-03-07T15:56:39.717Z,10.20
2024-03-07T15:59:07.104Z,12.40
2024-03-07T16:01:34.833Z,11.33
2024-03-07T16:04:02.275Z,10.53
2024-03-07T16:06:29.762Z,10.80
2024-03-07T16:08:57.378Z,10.83
2024-03-07T16:11:25.865Z,12.10
2024-03-07T16:13:53.422Z,11.47
2024-03-07T16:16:20.964Z,11.90
2024-03-07T16:18:48.530Z,13.60
2024-03-07T16:21:16.241Z,10.60
2024-03-07T16:23:43.809Z,14.80
2024-03-07T16:26:16.021Z,15.17
2024-03-07T16:28:43.439Z,12.70
2024-03-07T16:31:10.942Z,14.07
2024-03-07T16:33:38.451Z,13.20
2024-03-07T16:36:06.443Z,12.77
2024-03-07T16:38:35.362Z,13.10
2024-03-07T16:41:02.890Z,12.60
2024-03-07T16:43:30.340Z,12.20
2024-03-07T16:45:57.759Z,12.63
2024-03-07T16:48:25.922Z,12.50
2024-03-07T16:50:55.198Z,12.83
2024-03-07T16:53:24.403Z,12.33
2024-03-07T16:55:51.838Z,12.10
2024-03-07T16:58:20.201Z,13.60
2024-03-07T17:00:47.664Z,13.00
2024-03-07T17:03:16.184Z,13.27
2024-03-07T17:05:45.325Z,12.47
2024-03-07T17:08:14.072Z,13.40
2024-03-07T17:10:42.003Z,14.23
2024-03-07T17:13:13.993Z,13.83
2024-03-07T17:15:45.301Z,16.70
2024-03-07T17:18:14.007Z,15.60
2024-03-07T17:20:43.514Z,26.80
2024-03-07T17:23:10.951Z,15.47
2024-03-07T17:25:39.510Z,19.60
2024-03-07T17:28:07.710Z,17.10
2024-03-07T17:30:35.987Z,21.10
2024-03-07T17:33:06.059Z,17.50
2024-03-07T17:35:35.300Z,17.80
2024-03-07T17:38:02.789Z,12.17
2024-03-07T17:40:33.790Z,14.80
2024-03-07T17:43:02.590Z,16.70
2024-03-07T17:45:32.197Z,18.33
2024-03-07T17:47:59.715Z,15.40
2024-03-07T17:50:31.440Z,17.57
2024-03-07T17:53:03.108Z,15.10
2024-03-07T17:55:34.114Z,14.40
2024-03-07T17:58:02.072Z,13.50
2024-03-07T18:00:29.990Z,17.07
2024-03-07T18:02:58.265Z,13.30
2024-03-07T18:05:28.669Z,14.50
2024-03-07T18:07:58.127Z,13.53
2024-03-07T18:10:25.590Z,14.30
2024-03-07T18:12:54.234Z,15.70
2024-03-07T18:15:25.067Z,12.90
2024-03-07T18:17:54.256Z,15.13
2024-03-07T18:20:21.925Z,13.60
2024-03-07T18:22:51.151Z,13.20
2024-03-07T18:25:23.324Z,12.40
2024-03-07T18:27:51.507Z,15.10
2024-03-07T18:30:21.989Z,14.10
2024-03-07T18:32:50.413Z,15.10
2024-03-07T18:35:19.128Z,13.47
2024-03-07T18:37:49.266Z,13.53
2024-03-07T18:40:16.911Z,15.63
2024-03-07T18:42:45.895Z,15.97
2024-03-07T18:45:15.880Z,15.07
2024-03-07T18:47:44.066Z,14.50
2024-03-07T18:50:17.326Z,14.70
2024-03-07T18:52:47.818Z,16.03
2024-03-07T18:55:18.119Z,17.10
2024-03-07T18:57:46.994Z,16.83
2024-03-07T19:00:16.732Z,17.63
2024-03-07T19:02:44.202Z,17.43
2024-03-07T19:05:13.554Z,18.07
2024-03-07T19:07:40.981Z,18.67
2024-03-07T19:10:10.372Z,18.47
2024-03-07T19:12:38.849Z,18.53
2024-03-07T19:15:06.435Z,18.70
2024-03-07T19:17:35.924Z,18.60
2024-03-07T19:20:05.032Z,19.77
2024-03-07T19:22:34.158Z,18.37
2024-03-07T19:25:03.253Z,19.53
2024-03-07T19:27:31.262Z,18.47
2024-03-07T19:29:58.767Z,17.60
2024-03-07T19:32:26.604Z,17.87
2024-03-07T19:34:55.373Z,19.03
2024-03-07T19:37:25.188Z,18.23
2024-03-07T19:39:54.714Z,18.30
2024-03-07T19:42:22.193Z,18.27
2024-03-07T19:44:49.692Z,17.50
2024-03-07T19:47:17.787Z,18.70
2024-03-07T19:49:45.269Z,19.97
2024-03-07T19:52:12.707Z,17.40
2024-03-07T19:54:40.485Z,19.83
2024-03-07T19:57:08.004Z,18.33
2024-03-07T19:59:35.572Z,18.57
2024-03-07T20:02:04.686Z,18.20
2024-03-07T20:04:32.147Z,18.80
2024-03-07T20:07:09.974Z,19.00
2024-03-07T20:09:37.411Z,18.57
2024-03-07T20:12:06.960Z,18.90
2024-03-07T20:14:34.364Z,18.70
2024-03-07T20:17:01.818Z,19.07
2024-03-07T20:19:29.443Z,19.30
2024-03-07T20:21:58.860Z,18.80
2024-03-07T20:24:26.857Z,18.63
2024-03-07T20:26:55.034Z,17.63
2024-03-07T20:29:22.547Z,18.33
2024-03-07T20:31:49.999Z,19.33
2024-03-07T20:34:17.597Z,19.20
2024-03-07T20:36:45.066Z,17.87
2024-03-07T20:39:14.183Z,18.50
2024-03-07T20:41:43.242Z,18.63
2024-03-07T20:44:12.239Z,18.33
2024-03-07T20:46:39.667Z,17.83
2024-03-07T20:49:07.541Z,18.00
2024-03-07T20:51:36.603Z,18.10
2024-03-07T20:54:04.728Z,18.73
2024-03-07T20:56:32.333Z,17.60
2024-03-07T20:58:59.912Z,17.47
2024-03-07T21:01:27.315Z,17.10
2024-03-07T21:03:58.354Z,16.80
2024-03-07T21:06:25.013Z,18.90
2024-03-07T21:08:53.149Z,17.10
2024-03-07T21:11:30.437Z,18.60
2024-03-07T21:13:58.032Z,16.47
2024-03-07T21:16:26.947Z,16.13
2024-03-07T21:18:54.873Z,16.83
2024-03-07T21:21:27.157Z,16.97
2024-03-07T21:23:54.743Z,15.33
2024-03-07T21:26:22.473Z,16.90
2024-03-07T21:28:49.937Z,18.20
2024-03-07T21:31:19.008Z,18.40
2024-03-07T21:33:48.772Z,18.83
2024-03-07T21:36:22.261Z,17.07
2024-03-07T21:38:51.402Z,18.37
2024-03-07T21:41:18.771Z,17.13
2024-03-07T21:43:46.204Z,17.30
2024-03-07T21:46:15.278Z,18.40
2024-03-07T21:48:42.850Z,18.40
2024-03-07T21:51:11.941Z,18.40
2024-03-07T21:53:41.451Z,16.17
2024-03-07T21:56:09.023Z,18.03
2024-03-07T21:58:36.896Z,17.40
2024-03-07T22:01:06.058Z,18.30
2024-03-07T22:03:34.613Z,17.73
2024-03-07T22:06:02.109Z,17.70
2024-03-07T22:08:29.539Z,16.47
2024-03-07T22:10:56.952Z,17.70
2024-03-07T22:13:24.376Z,18.13
2024-03-07T22:15:51.915Z,18.57
2024-03-07T22:18:19.538Z,17.60
2024-03-07T22:20:47.114Z,18.10
2024-03-07T22:23:14.625Z,16.63
2024-03-07T22:25:42.071Z,16.60
2024-03-07T22:28:09.511Z,18.80
2024-03-07T22:30:36.929Z,19.93
2024-03-07T22:33:07.325Z,18.40
2024-03-07T22:35:35.998Z,18.73
2024-03-07T22:38:03.437Z,17.93
2024-03-07T22:40:30.853Z,21.93
2024-03-07T22:42:58.311Z,18.20
2024-03-07T22:45:27.029Z,21.00
2024-03-07T22:47:55.130Z,17.53
2024-03-07T22:50:28.887Z,19.70
2024-03-07T22:52:52.031Z,22.53
2024-03-07T22:55:19.453Z,18.13
2024-03-07T22:57:46.873Z,20.07
2024-03-07T23:00:20.155Z,18.97
2024-03-07T23:02:48.469Z,19.00
2024-03-07T23:05:17.365Z,21.20
2024-03-07T23:07:45.461Z,22.00
2024-03-07T23:10:12.899Z,21.83
2024-03-07T23:12:40.335Z,19.80
2024-03-07T23:15:09.918Z,19.90
2024-03-07T23:17:39.882Z,21.77
2024-03-07T23:20:08.309Z,18.57
2024-03-07T23:22:35.765Z,19.20
2024-03-07T23:25:04.268Z,18.43
2024-03-07T23:27:33.476Z,18.70
2024-03-07T23:30:02.901Z,19.00
2024-03-07T23:32:30.617Z,18.73
2024-03-07T23:34:58.913Z,18.67
2024-03-07T23:37:26.344Z,18.83
2024-03-07T23:39:54.974Z,20.17
2024-03-07T23:42:22.406Z,18.30
2024-03-07T23:44:49.891Z,18.90
2024-03-07T23:47:18.894Z,19.67
2024-03-07T23:49:46.326Z,18.80
2024-03-07T23:52:13.838Z,20.90
2024-03-07T23:54:41.389Z,21.20
2024-03-07T23:57:08.914Z,18.40
2024-03-07T23:59:36.403Z,19.53
